Time;durP1;ratioP1;P1;durP2;ratioP2;P2;SDS_P1;SDS_P2;PMS_P1;PMS_P2;Temp;Humidity;BMP_temperature;BMP_pressure;BME280_temperature;BME280_humidity;BME280_pressure;Samples;Min_cycle;Max_cycle;Signal;HPM_P1;HPM_P2
2023/09/10 00:00:10;;;;;;;;;;;;;;;16.32;60.10;101161.91;109154;1263;67978;-90
2023/09/10 00:03:34;;;;;;;;;;;;;;;16.27;60.26;101159.12;109199;1263;71263;-89
2023/09/10 00:07:00;;;;;;;;;;;;;;;16.25;60.30;101158.84;109215;1263;58876;-89
2023/09/10 00:13:03;;;;;;;;;;;;;;;16.23;60.41;101158.70;109243;1262;72676;-90
2023/09/10 00:16:30;;;;;;;;;;;;;;;16.27;60.43;101154.61;109288;1263;67890;-89
2023/09/10 00:25:20;;;;;;;;;;;;;;;16.18;60.54;101155.04;109415;1262;58229;-89
2023/09/10 00:28:45;;;;;;;;;;;;;;;16.09;60.69;101155.86;109382;1262;73156;-89
2023/09/10 00:32:15;;;;;;;;;;;;;;;16.09;60.73;101150.46;109389;1263;67289;-89
2023/09/10 00:35:41;;;;;;;;;;;;;;;16.14;60.65;101149.44;109354;1263;72302;-89
2023/09/10 00:39:07;;;;;;;;;;;;;;;16.16;60.67;101149.00;109282;1263;59037;-89
2023/09/10 00:42:33;;;;;;;;;;;;;;;16.15;60.71;101149.73;109376;1263;59956;-89
2023/09/10 00:45:37;;;;;;;;;;;;;;;16.11;60.75;101144.33;109233;1263;73102;-90
2023/09/10 00:49:03;;;;;;;;;;;;;;;15.98;60.71;101140.70;109230;1263;67698;-89
2023/09/10 00:52:29;;;;;;;;;;;;;;;15.95;60.84;101139.42;109191;1263;72479;-89
2023/09/10 00:55:55;;;;;;;;;;;;;;;15.89;60.86;101138.38;109254;1263;59018;-89
2023/09/10 00:59:21;;;;;;;;;;;;;;;15.92;60.89;101141.08;109315;1263;58669;-90
2023/09/10 01:02:46;;;;;;;;;;;;;;;15.92;60.95;101140.05;109331;1262;73911;-89
2023/09/10 01:06:13;;;;;;;;;;;;;;;15.91;61.04;101140.60;109296;1262;67271;-89
2023/09/10 01:09:39;;;;;;;;;;;;;;;15.88;61.02;101142.23;109307;1266;72416;-90
2023/09/10 01:15:27;;;;;;;;;;;;;;;15.79;60.94;101140.40;109287;1263;59422;-89
2023/09/10 01:21:33;;;;;;;;;;;;;;;15.65;61.04;101141.16;109295;1263;67834;-89
2023/09/10 01:24:40;;;;;;;;;;;;;;;15.63;61.14;101146.27;109248;1264;72570;-89
2023/09/10 01:28:08;;;;;;;;;;;;;;;15.64;61.21;101143.29;108784;1270;59283;-90
2023/09/10 01:36:44;;;;;;;;;;;;;;;15.64;61.25;101142.92;109276;1265;65558;-92
2023/09/10 01:39:44;;;;;;;;;;;;;;;15.64;61.21;101140.32;109268;1263;72591;-90
2023/09/10 01:43:10;;;;;;;;;;;;;;;15.63;61.23;101140.86;109279;1262;58614;-90
2023/09/10 01:46:37;;;;;;;;;;;;;;;15.63;61.22;101138.96;109301;1263;59849;-90
2023/09/10 01:50:03;;;;;;;;;;;;;;;15.59;61.40;101141.36;109265;1263;73247;-92
2023/09/10 02:01:35;;;;;;;;;;;;;;;15.47;61.49;101138.88;109500;1263;58911;-92
2023/09/10 02:05:01;;;;;;;;;;;;;;;15.42;61.35;101136.25;109229;1264;73217;-90
2023/09/10 02:08:28;;;;;;;;;;;;;;;15.34;61.60;101127.96;108913;1267;68409;-89
2023/09/10 02:11:58;;;;;;;;;;;;;;;15.32;61.58;101127.33;108865;1267;72211;-89
2023/09/10 02:15:24;;;;;;;;;;;;;;;15.28;61.58;101125.52;108972;1266;59144;-89
2023/09/10 02:18:50;;;;;;;;;;;;;;;15.25;61.71;101119.52;108913;1266;59742;-89
2023/09/10 02:22:16;;;;;;;;;;;;;;;15.27;61.69;101119.80;108987;1266;73235;-90
2023/09/10 02:25:42;;;;;;;;;;;;;;;15.27;61.71;101117.71;109012;1265;68462;-89
2023/09/10 02:29:08;;;;;;;;;;;;;;;15.18;61.67;101116.05;108982;1266;71895;-90
2023/09/10 02:32:33;;;;;;;;;;;;;;;15.15;61.81;101113.02;108972;1266;59243;-90
2023/09/10 02:35:59;;;;;;;;;;;;;;;15.12;61.87;101111.52;108992;1266;59118;-89
2023/09/10 02:39:26;;;;;;;;;;;;;;;15.12;61.97;101113.78;109123;1264;73600;-90
2023/09/10 02:45:29;;;;;;;;;;;;;;;15.12;61.88;101117.09;109384;1262;72662;-89
2023/09/10 02:48:56;;;;;;;;;;;;;;;15.06;61.91;101124.90;109377;1263;58863;-89
2023/09/10 02:52:24;;;;;;;;;;;;;;;15.01;61.97;101126.09;109364;1262;59234;-89
2023/09/10 02:55:54;;;;;;;;;;;;;;;15.01;62.06;101133.20;109355;1262;74239;-89
2023/09/10 02:59:19;;;;;;;;;;;;;;;15.03;62.10;101137.15;109311;1263;67137;-89
2023/09/10 03:05:25;;;;;;;;;;;;;;;14.97;62.06;101136.27;109208;1262;59540;-89
2023/09/10 03:08:51;;;;;;;;;;;;;;;14.90;62.14;101135.23;109222;1263;58883;-89
2023/09/10 03:12:15;;;;;;;;;;;;;;;14.88;62.16;101129.19;109222;1263;73223;-89
2023/09/10 03:15:41;;;;;;;;;;;;;;;14.87;62.25;101132.70;109231;1263;67256;-89
2023/09/10 03:19:07;;;;;;;;;;;;;;;14.87;62.13;101126.44;109218;1266;71172;-89
2023/09/10 03:22:35;;;;;;;;;;;;;;;14.83;62.29;101121.34;109267;1263;58886;-92
2023/09/10 03:25:36;;;;;;;;;;;;;;;14.86;62.29;101120.55;109278;1263;58979;-89
2023/09/10 03:29:04;;;;;;;;;;;;;;;14.87;62.30;101120.54;109246;1262;74303;-91
2023/09/10 03:32:30;;;;;;;;;;;;;;;14.85;62.30;101120.77;109291;1262;67133;-91
2023/09/10 03:35:56;;;;;;;;;;;;;;;14.85;62.33;101121.63;109291;1262;70979;-91
2023/09/10 03:39:22;;;;;;;;;;;;;;;14.81;62.33;101115.82;109239;1266;58292;-92
2023/09/10 03:45:28;;;;;;;;;;;;;;;14.73;62.49;101107.70;109260;1266;73772;-89
2023/09/10 03:48:54;;;;;;;;;;;;;;;14.74;62.45;101104.05;109286;1264;67261;-91
2023/09/10 03:52:03;;;;;;;;;;;;;;;14.69;62.36;101101.74;109284;1264;70962;-91
2023/09/10 03:55:32;;;;;;;;;;;;;;;14.64;62.54;101098.06;108904;1267;59523;-91
2023/09/10 03:58:58;;;;;;;;;;;;;;;14.66;62.48;101095.39;108961;1267;59739;-91
2023/09/10 04:02:24;;;;;;;;;;;;;;;14.64;62.56;101091.11;108947;1266;73187;-90
2023/09/10 04:05:50;;;;;;;;;;;;;;;14.60;62.50;101091.55;109000;1266;68529;-91
2023/09/10 04:09:28;;;;;;;;;;;;;;;;;;;;;
2023/09/10 04:12:42;;;;;;;;;;;;;;;14.57;62.74;101095.08;108975;1267;58991;-90
2023/09/10 04:16:08;;;;;;;;;;;;;;;14.57;62.61;101092.65;108975;1267;59526;-90
2023/09/10 04:19:34;;;;;;;;;;;;;;;14.56;62.64;101092.85;108967;1266;72112;-91
2023/09/10 04:23:00;;;;;;;;;;;;;;;14.52;62.69;101091.42;109006;1267;67417;-91
2023/09/10 04:26:25;;;;;;;;;;;;;;;14.53;62.86;101094.36;109196;1264;72245;-91
2023/09/10 04:29:54;;;;;;;;;;;;;;;14.57;62.78;101098.55;109363;1263;59115;-91
2023/09/10 04:35:57;;;;;;;;;;;;;;;14.65;62.80;101099.94;109241;1263;74188;-91
2023/09/10 04:39:24;;;;;;;;;;;;;;;14.61;62.84;101097.26;109243;1263;67075;-91
2023/09/10 04:42:52;;;;;;;;;;;;;;;14.58;62.91;101095.91;105035;1263;5476781;-91
2023/09/10 04:46:16;;;;;;;;;;;;;;;14.57;63.02;101097.85;109270;1263;59189;-90
2023/09/10 04:49:41;;;;;;;;;;;;;;;14.58;63.00;101098.36;109236;1263;59790;-91
2023/09/10 04:53:07;;;;;;;;;;;;;;;14.58;63.08;101099.39;109209;1263;73280;-91
2023/09/10 05:01:44;;;;;;;;;;;;;;;14.76;63.24;101107.80;109275;1263;59203;-91
2023/09/10 05:05:10;;;;;;;;;;;;;;;14.83;63.26;101109.88;109310;1263;59733;-91
2023/09/10 05:08:42;;;;;;;;;;;;;;;14.87;63.22;101117.94;109248;1262;74309;-91
2023/09/10 05:12:08;;;;;;;;;;;;;;;14.91;63.28;101119.91;109139;1263;67098;-91
2023/09/10 05:15:34;;;;;;;;;;;;;;;14.97;63.34;101120.45;109312;1263;72464;-90
2023/09/10 05:21:38;;;;;;;;;;;;;;;15.03;63.51;101123.27;109329;1263;59628;-90
2023/09/10 05:25:04;;;;;;;;;;;;;;;15.09;63.54;101125.67;109288;1263;74393;-90
2023/09/10 05:31:04;;;;;;;;;;;;;;;15.31;63.48;101123.35;109269;1264;72626;-90
2023/09/10 05:34:29;;;;;;;;;;;;;;;15.41;63.54;101123.94;109260;1263;59290;-90
2023/09/10 05:37:56;;;;;;;;;;;;;;;15.52;63.54;101123.30;109271;1264;59852;-90
2023/09/10 05:41:26;;;;;;;;;;;;;;;15.59;63.59;101119.81;109245;1264;73262;-90
2023/09/10 05:44:25;;;;;;;;;;;;;;;15.66;63.75;101121.84;109239;1266;67493;-90
2023/09/10 05:47:51;;;;;;;;;;;;;;;15.77;63.88;101123.60;109202;1266;71271;-90
2023/09/10 05:50:47;;;;;;;;;;;;;;;15.99;64.02;101126.44;109283;1263;59251;-90
2023/09/10 05:56:21;;;;;;;;;;;;;;;16.51;63.89;101126.69;109293;1262;74154;-90
2023/09/10 06:10:08;;;;;;;;;;;;;;;17.40;64.13;101124.83;109298;1262;74543;-90
2023/09/10 06:18:35;;;;;;;;;;;;;;;19.94;63.74;101125.95;109279;1263;89945;-92
2023/09/10 06:22:03;;;;;;;;;;;;;;;21.15;63.61;101129.78;109223;1263;60274;-90
2023/09/10 06:28:13;;;;;;;;;;;;;;;23.10;62.99;101124.42;109314;1264;67678;-90
2023/09/10 06:31:39;;;;;;;;;;;;;;;24.20;62.44;101120.73;109293;1262;71332;-90
2023/09/10 06:37:38;;;;;;;;;;;;;;;25.92;61.85;101127.57;109288;1264;60046;-90
2023/09/10 06:41:04;;;;;;;;;;;;;;;26.86;61.71;101130.48;109275;1264;74427;-90
2023/09/10 06:44:30;;;;;;;;;;;;;;;27.75;61.33;101130.94;109280;1264;67357;-90
2023/09/10 06:51:06;;;;;;;;;;;;;;;29.39;60.33;101130.48;109222;1263;58881;-91
2023/09/10 06:54:33;;;;;;;;;;;;;;;30.17;59.87;101134.80;109205;1263;59610;-90
2023/09/10 06:57:59;;;;;;;;;;;;;;;30.70;59.99;101133.77;109207;1264;74366;-91
2023/09/10 07:01:25;;;;;;;;;;;;;;;31.51;59.46;101130.05;109142;1264;67433;-91
2023/09/10 07:04:51;;;;;;;;;;;;;;;32.30;59.12;101125.67;109150;1264;70676;-91
2023/09/10 07:08:17;;;;;;;;;;;;;;;33.02;58.41;101123.15;109151;1264;59003;-91
2023/09/10 07:11:43;;;;;;;;;;;;;;;33.69;57.72;101122.78;109110;1264;59003;-91
2023/09/10 07:15:08;;;;;;;;;;;;;;;34.05;57.74;101119.98;109147;1264;73268;-91
2023/09/10 07:18:34;;;;;;;;;;;;;;;34.98;57.76;101121.07;108906;1269;68342;-91
2023/09/10 07:22:00;;;;;;;;;;;;;;;36.11;56.86;101120.52;108853;1269;71244;-91
2023/09/10 07:25:26;;;;;;;;;;;;;;;36.90;56.08;101122.58;108850;1267;58767;-91
2023/09/10 07:28:52;;;;;;;;;;;;;;;37.09;55.99;101120.75;108865;1269;59851;-90
2023/09/10 07:32:02;;;;;;;;;;;;;;;37.07;55.44;101124.45;108892;1269;75421;-91
2023/09/10 07:35:40;;;;;;;;;;;;;;;;;;;;;
2023/09/10 07:38:55;;;;;;;;;;;;;;;36.24;54.55;101125.23;108869;1267;72293;-92
2023/09/10 07:42:21;;;;;;;;;;;;;;;36.10;54.36;101128.23;108873;1267;58595;-91
2023/09/10 07:45:47;;;;;;;;;;;;;;;35.54;53.68;101134.27;108886;1269;58878;-91
2023/09/10 07:49:12;;;;;;;;;;;;;;;35.53;53.18;101137.98;109024;1264;73728;-91
2023/09/10 07:52:38;;;;;;;;;;;;;;;36.89;51.69;101134.20;109134;1264;67238;-91
2023/09/10 07:56:05;;;;;;;;;;;;;;;38.26;50.64;101134.41;109120;1266;71470;-91
2023/09/10 07:59:30;;;;;;;;;;;;;;;39.44;49.97;101131.44;109095;1264;58963;-91
2023/09/10 08:02:57;;;;;;;;;;;;;;;40.41;49.12;101131.09;109111;1266;59115;-91
2023/09/10 08:06:22;;;;;;;;;;;;;;;41.39;48.42;101132.59;109083;1264;73163;-90
2023/09/10 08:09:48;;;;;;;;;;;;;;;42.25;48.14;101131.39;109121;1264;67313;-91
2023/09/10 08:13:14;;;;;;;;;;;;;;;43.14;47.66;101132.92;109089;1268;71614;-91
2023/09/10 08:16:40;;;;;;;;;;;;;;;43.83;47.13;101130.23;109105;1264;58972;-91
2023/09/10 08:20:03;;;;;;;;;;;;;;;44.35;46.48;101125.27;109111;1263;58876;-89
2023/09/10 08:23:28;;;;;;;;;;;;;;;44.69;45.48;101117.91;108982;1266;73516;-89
2023/09/10 08:26:54;;;;;;;;;;;;;;;44.79;45.17;101121.36;109094;1264;67298;-89
2023/09/10 08:30:19;;;;;;;;;;;;;;;44.69;44.70;101120.41;109075;1265;72424;-89
2023/09/10 08:33:45;;;;;;;;;;;;;;;42.17;44.78;101117.01;109109;1266;58895;-89
2023/09/10 08:37:11;;;;;;;;;;;;;;;39.54;45.27;101114.80;109105;1264;59914;-89
2023/09/10 08:40:37;;;;;;;;;;;;;;;37.58;45.06;101106.21;109143;1268;73868;-91
2023/09/10 08:44:06;;;;;;;;;;;;;;;36.01;44.66;101104.44;109133;1266;69317;-91
2023/09/10 08:47:32;;;;;;;;;;;;;;;34.66;44.40;101103.23;109116;1266;71048;-91
2023/09/10 08:50:58;;;;;;;;;;;;;;;33.45;44.04;101094.21;109110;1268;58848;-91
2023/09/10 08:54:24;;;;;;;;;;;;;;;32.34;43.86;101086.50;109140;1268;60337;-91
2023/09/10 08:57:50;;;;;;;;;;;;;;;31.45;43.48;101086.77;109081;1268;73177;-91
2023/09/10 09:01:16;;;;;;;;;;;;;;;30.76;43.58;101087.52;109067;1265;67144;-91
2023/09/10 09:04:42;;;;;;;;;;;;;;;30.16;43.50;101077.59;109069;1265;70711;-91
2023/09/10 09:08:11;;;;;;;;;;;;;;;29.59;43.41;101075.64;109123;1264;59012;-91
2023/09/10 09:11:37;;;;;;;;;;;;;;;29.13;43.35;101073.65;109143;1264;58729;-91
2023/09/10 09:15:05;;;;;;;;;;;;;;;28.62;43.69;101070.38;109157;1264;73333;-91
2023/09/10 09:18:31;;;;;;;;;;;;;;;28.23;43.64;101073.64;109135;1264;67232;-91
2023/09/10 09:21:57;;;;;;;;;;;;;;;27.92;43.58;101067.58;109145;1264;71125;-91
2023/09/10 09:25:25;;;;;;;;;;;;;;;27.67;43.81;101071.52;109158;1264;58265;-91
2023/09/10 09:28:51;;;;;;;;;;;;;;;27.50;43.94;101071.13;109161;1264;58891;-91
2023/09/10 09:32:17;;;;;;;;;;;;;;;27.31;44.25;101075.63;109119;1264;73247;-90
2023/09/10 09:35:44;;;;;;;;;;;;;;;27.19;44.18;101072.05;109115;1264;67587;-90
2023/09/10 09:39:11;;;;;;;;;;;;;;;27.06;44.19;101067.02;109119;1264;71151;-90
2023/09/10 09:42:38;;;;;;;;;;;;;;;26.93;44.56;101067.45;109124;1264;58967;-91
2023/09/10 09:46:04;;;;;;;;;;;;;;;26.85;44.67;101068.24;109171;1264;59680;-90
2023/09/10 09:49:30;;;;;;;;;;;;;;;26.79;44.73;101071.61;109129;1264;74912;-91
2023/09/10 09:52:56;;;;;;;;;;;;;;;26.73;44.90;101063.77;109146;1264;67038;-90
2023/09/10 09:56:22;;;;;;;;;;;;;;;26.68;45.04;101066.23;109119;1264;71235;-90
2023/09/10 09:59:49;;;;;;;;;;;;;;;26.64;45.12;101062.27;109084;1264;58919;-90
2023/09/10 10:03:14;;;;;;;;;;;;;;;26.63;45.20;101056.90;109101;1264;59090;-90
2023/09/10 10:06:40;;;;;;;;;;;;;;;26.62;45.44;101053.41;109129;1264;74430;-90
2023/09/10 10:10:06;;;;;;;;;;;;;;;26.62;45.47;101050.02;109152;1264;68359;-90
2023/09/10 10:13:33;;;;;;;;;;;;;;;26.63;45.84;101046.08;108854;1267;71152;-90
2023/09/10 10:16:58;;;;;;;;;;;;;;;26.65;45.73;101048.23;108878;1267;59199;-90
2023/09/10 10:20:24;;;;;;;;;;;;;;;26.67;45.94;101048.63;108883;1267;59300;-90
2023/09/10 10:23:51;;;;;;;;;;;;;;;26.70;46.02;101042.35;108886;1267;73316;-90
2023/09/10 10:27:17;;;;;;;;;;;;;;;26.73;46.19;101042.16;108892;1267;67278;-90
2023/09/10 10:30:43;;;;;;;;;;;;;;;26.74;46.31;101041.35;108793;1267;71359;-90
2023/09/10 10:34:10;;;;;;;;;;;;;;;26.74;46.12;101032.55;108859;1268;59056;-90
2023/09/10 10:37:46;;;;;;;;;;;;;;;26.75;46.21;101033.33;108542;1273;59254;-90
2023/09/10 10:49:03;;;;;;;;;;;;;;;26.83;46.33;101028.45;109290;1264;58920;-90
2023/09/10 10:55:03;;;;;;;;;;;;;;;26.87;46.50;101027.45;109319;1262;74154;-90
2023/09/10 10:58:00;;;;;;;;;;;;;;;26.90;46.43;101026.65;109214;1263;67734;-90
2023/09/10 11:04:09;;;;;;;;;;;;;;;26.90;46.48;101032.69;109243;1263;59190;-91
2023/09/10 11:07:36;;;;;;;;;;;;;;;26.90;46.28;101027.70;109238;1263;58723;-91
2023/09/10 11:13:25;;;;;;;;;;;;;;;26.91;46.52;101023.63;109287;1262;67679;-90
2023/09/10 11:17:05;;;;;;;;;;;;;;;26.93;46.46;101023.80;108755;1271;72824;-90
2023/09/10 11:23:25;;;;;;;;;;;;;;;27.00;46.37;101022.36;109229;1266;60366;-90
2023/09/10 11:26:35;;;;;;;;;;;;;;;26.99;46.63;101022.43;109221;1263;73384;-90
2023/09/10 11:30:03;;;;;;;;;;;;;;;26.99;46.53;101021.40;108775;1272;67196;-90
2023/09/10 11:33:48;;;;;;;;;;;;;;;27.01;46.62;101021.01;108763;1272;70968;-89
2023/09/10 11:37:15;;;;;;;;;;;;;;;27.02;46.63;101018.11;108781;1272;58995;-90
2023/09/10 11:40:41;;;;;;;;;;;;;;;27.03;46.53;101011.71;108803;1274;59210;-90
2023/09/10 11:46:22;;;;;;;;;;;;;;;27.06;46.76;101008.92;109248;1263;66184;-90
2023/09/10 11:52:31;;;;;;;;;;;;;;;27.12;46.66;101006.38;109246;1263;59167;-90
2023/09/10 11:56:00;;;;;;;;;;;;;;;27.14;46.57;101004.39;109303;1263;58925;-90
2023/09/10 11:59:25;;;;;;;;;;;;;;;27.16;46.64;101002.33;109350;1262;73176;-90
2023/09/10 12:02:50;;;;;;;;;;;;;;;27.16;46.56;101001.81;109336;1263;67422;-90
2023/09/10 12:06:19;;;;;;;;;;;;;;;27.19;46.63;101004.57;109326;1263;70936;-90
2023/09/10 12:09:18;;;;;;;;;;;;;;;27.21;46.59;101004.61;109238;1263;58829;-90
2023/09/10 12:12:47;;;;;;;;;;;;;;;27.22;46.59;101003.48;109209;1263;59714;-90
2023/09/10 12:16:13;;;;;;;;;;;;;;;27.22;46.36;100995.48;109206;1263;73147;-90
2023/09/10 12:19:38;;;;;;;;;;;;;;;27.23;46.52;100990.60;109226;1263;66913;-92
2023/09/10 12:23:05;;;;;;;;;;;;;;;27.24;46.54;100989.50;109205;1263;72567;-92
2023/09/10 12:26:31;;;;;;;;;;;;;;;27.25;46.67;100991.02;109168;1263;59108;-90
2023/09/10 12:30:10;;;;;;;;;;;;;;;;;;;;;
2023/09/10 12:36:52;;;;;;;;;;;;;;;27.24;46.46;100988.77;109195;1263;67165;-88
2023/09/10 12:40:28;;;;;;;;;;;;;;;;;;;;;
2023/09/10 12:43:47;;;;;;;;;;;;;;;27.20;46.59;100980.73;109213;1263;58912;-89
2023/09/10 12:54:00;;;;;;;;;;;;;;;27.21;46.58;100973.42;108910;1268;68470;-89
2023/09/10 12:57:26;;;;;;;;;;;;;;;27.22;46.68;100971.27;108864;1268;71224;-89
2023/09/10 13:00:52;;;;;;;;;;;;;;;27.22;46.49;100970.89;108874;1269;58923;-89
2023/09/10 13:07:51;;;;;;;;;;;;;;;27.20;46.77;100967.83;108867;1268;73246;-89
2023/09/10 13:11:17;;;;;;;;;;;;;;;27.22;46.71;100968.19;108869;1268;67126;-89
2023/09/10 13:14:45;;;;;;;;;;;;;;;27.23;46.65;100964.98;108868;1268;71271;-89
2023/09/10 13:18:11;;;;;;;;;;;;;;;27.23;46.64;100965.69;109079;1263;58900;-89
2023/09/10 13:21:37;;;;;;;;;;;;;;;27.31;46.74;100963.42;109167;1263;59261;-89
2023/09/10 13:25:03;;;;;;;;;;;;;;;27.32;46.58;100957.86;109105;1263;73134;-89
2023/09/10 13:28:35;;;;;;;;;;;;;;;27.30;46.51;100955.86;108718;1270;67118;-88
2023/09/10 13:32:02;;;;;;;;;;;;;;;27.30;46.50;100955.19;108303;1277;71277;-89
2023/09/10 13:35:30;;;;;;;;;;;;;;;27.30;46.55;100955.52;107566;1283;59057;-88
2023/09/10 13:38:54;;;;;;;;;;;;;;;27.29;46.61;100953.30;107624;1283;59266;-89
2023/09/10 13:42:20;;;;;;;;;;;;;;;27.30;46.49;100949.68;107597;1283;74618;-89
2023/09/10 13:45:47;;;;;;;;;;;;;;;27.32;46.53;100950.40;107612;1283;68303;-90
2023/09/10 13:49:15;;;;;;;;;;;;;;;27.34;46.52;100954.86;107582;1283;71340;-89
2023/09/10 13:56:13;;;;;;;;;;;;;;;27.36;46.47;100960.67;106747;1291;59122;-89
2023/09/10 13:59:41;;;;;;;;;;;;;;;27.35;46.62;100964.49;106780;1291;73296;-89
2023/09/10 14:03:07;;;;;;;;;;;;;;;27.32;46.55;100962.42;106778;1291;67059;-89
2023/09/10 14:06:34;;;;;;;;;;;;;;;27.30;46.47;100966.51;107342;1284;72756;-88
2023/09/10 14:10:00;;;;;;;;;;;;;;;27.30;46.54;100967.23;107987;1280;58969;-89
2023/09/10 14:13:27;;;;;;;;;;;;;;;27.30;46.50;100964.14;108563;1273;58635;-89
2023/09/10 14:16:53;;;;;;;;;;;;;;;27.34;46.42;100960.68;108587;1273;74664;-89
2023/09/10 14:20:19;;;;;;;;;;;;;;;27.31;46.52;100957.02;108560;1276;67423;-89
2023/09/10 14:25:58;;;;;;;;;;;;;;;27.25;46.49;100952.57;109161;1263;59272;-88
2023/09/10 14:29:24;;;;;;;;;;;;;;;27.20;46.36;100946.02;109223;1263;59316;-89
2023/09/10 14:32:48;;;;;;;;;;;;;;;27.19;46.34;100949.14;109229;1262;74223;-88
2023/09/10 14:36:13;;;;;;;;;;;;;;;27.18;46.42;100949.77;109196;1263;67258;-88
2023/09/10 14:39:37;;;;;;;;;;;;;;;27.19;46.55;100948.23;109181;1263;71208;-89
2023/09/10 14:43:01;;;;;;;;;;;;;;;27.18;46.63;100947.48;109182;1262;58954;-88
2023/09/10 14:46:25;;;;;;;;;;;;;;;27.16;46.50;100945.11;109140;1263;59206;-90
2023/09/10 14:49:50;;;;;;;;;;;;;;;27.17;46.63;100947.39;109128;1263;74322;-89
2023/09/10 14:53:14;;;;;;;;;;;;;;;27.13;46.64;100945.96;109162;1263;67833;-89
2023/09/10 14:59:22;;;;;;;;;;;;;;;27.09;46.63;100934.60;109075;1266;59148;-88
2023/09/10 15:05:22;;;;;;;;;;;;;;;26.99;46.48;100929.53;109129;1263;73033;-89
2023/09/10 15:11:21;;;;;;;;;;;;;;;26.94;46.70;100926.00;109196;1263;72349;-89
2023/09/10 15:14:45;;;;;;;;;;;;;;;26.92;46.84;100923.54;108663;1270;59519;-89
2023/09/10 15:18:21;;;;;;;;;;;;;;;;;;;;;
2023/09/10 15:21:34;;;;;;;;;;;;;;;26.90;46.76;100922.13;108707;1269;73732;-89
2023/09/10 15:25:01;;;;;;;;;;;;;;;26.88;46.66;100921.35;108755;1269;67373;-89
2023/09/10 15:28:27;;;;;;;;;;;;;;;26.84;46.94;100913.08;108716;1270;71146;-89
2023/09/10 15:31:54;;;;;;;;;;;;;;;26.75;47.25;100913.97;108726;1270;59136;-88
2023/09/10 15:35:00;;;;;;;;;;;;;;;26.70;47.63;100917.16;108722;1269;60264;-89
2023/09/10 15:38:26;;;;;;;;;;;;;;;26.68;47.83;100917.29;108747;1269;72635;-89
2023/09/10 15:41:53;;;;;;;;;;;;;;;26.63;47.56;100916.45;108769;1270;67174;-89
2023/09/10 15:45:19;;;;;;;;;;;;;;;26.57;47.61;100913.60;108772;1269;71405;-89
2023/09/10 15:48:46;;;;;;;;;;;;;;;26.48;47.59;100911.81;108381;1276;58882;-89
2023/09/10 15:52:13;;;;;;;;;;;;;;;26.36;47.81;100917.90;108711;1270;58894;-89
2023/09/10 15:55:38;;;;;;;;;;;;;;;26.34;48.05;100916.27;108778;1270;73309;-89
2023/09/10 15:58:46;;;;;;;;;;;;;;;26.30;48.10;100915.98;108721;1270;67835;-89
2023/09/10 16:02:12;;;;;;;;;;;;;;;26.27;48.13;100913.46;108725;1270;71912;-89
2023/09/10 16:05:40;;;;;;;;;;;;;;;26.19;48.44;100914.24;108738;1270;59098;-89
2023/09/10 16:09:05;;;;;;;;;;;;;;;26.13;48.49;100911.36;108732;1270;59960;-88
2023/09/10 16:15:10;;;;;;;;;;;;;;;25.97;48.76;100906.05;109275;1263;67728;-89
2023/09/10 16:18:36;;;;;;;;;;;;;;;25.91;48.74;100912.89;108722;1270;72056;-89
2023/09/10 16:22:03;;;;;;;;;;;;;;;25.83;48.98;100911.92;108687;1270;59330;-89
2023/09/10 16:25:29;;;;;;;;;;;;;;;25.76;49.25;100911.73;108711;1271;59022;-89
2023/09/10 16:28:55;;;;;;;;;;;;;;;25.68;49.42;100912.80;108729;1271;73370;-89
2023/09/10 16:32:23;;;;;;;;;;;;;;;25.59;49.52;100904.84;108693;1271;67733;-87
2023/09/10 16:35:49;;;;;;;;;;;;;;;25.48;49.79;100906.14;108706;1273;72199;-89
2023/09/10 16:39:15;;;;;;;;;;;;;;;25.38;49.97;100903.20;108682;1270;59188;-89
2023/09/10 16:42:42;;;;;;;;;;;;;;;25.29;50.17;100904.77;104738;1271;5246380;-89
2023/09/10 16:46:08;;;;;;;;;;;;;;;25.20;50.37;100904.71;108736;1274;74003;-90
2023/09/10 16:49:35;;;;;;;;;;;;;;;25.13;50.49;100910.71;108761;1271;67267;-89
2023/09/10 16:55:57;;;;;;;;;;;;;;;24.94;50.69;100917.85;109248;1263;59353;-89
2023/09/10 16:59:19;;;;;;;;;;;;;;;24.79;50.80;100919.98;109203;1263;64270;-88
2023/09/10 17:02:47;;;;;;;;;;;;;;;24.69;51.12;100918.75;109348;1263;74956;-89
2023/09/10 17:06:12;;;;;;;;;;;;;;;24.61;51.27;100915.48;109286;1263;67438;-88
2023/09/10 17:09:38;;;;;;;;;;;;;;;24.49;51.54;100914.52;109216;1262;72428;-88
2023/09/10 17:13:04;;;;;;;;;;;;;;;24.36;51.72;100914.17;109279;1262;59052;-88
2023/09/10 17:16:30;;;;;;;;;;;;;;;24.24;52.04;100915.52;109249;1263;58963;-88
2023/09/10 17:19:56;;;;;;;;;;;;;;;24.14;52.07;100915.34;109284;1262;73136;-89
2023/09/10 17:23:23;;;;;;;;;;;;;;;24.03;52.22;100914.80;109300;1263;69058;-89
2023/09/10 17:29:32;;;;;;;;;;;;;;;23.86;52.54;100918.52;109208;1263;58820;-90
2023/09/10 17:32:58;;;;;;;;;;;;;;;23.75;52.70;100916.92;109240;1263;58959;-90
2023/09/10 17:36:25;;;;;;;;;;;;;;;23.61;52.81;100921.54;109221;1262;74307;-89
2023/09/10 17:39:51;;;;;;;;;;;;;;;23.50;53.02;100921.52;108642;1270;67268;-90
2023/09/10 17:43:18;;;;;;;;;;;;;;;23.42;53.12;100923.64;108620;1270;71287;-90
2023/09/10 17:46:44;;;;;;;;;;;;;;;23.33;53.24;100923.88;108612;1270;59051;-90
2023/09/10 17:50:10;;;;;;;;;;;;;;;23.24;53.40;100923.23;108623;1270;59626;-89
2023/09/10 17:53:37;;;;;;;;;;;;;;;23.08;53.67;100922.34;108632;1270;73404;-88
2023/09/10 17:57:03;;;;;;;;;;;;;;;22.92;53.84;100921.92;108581;1271;67325;-87
2023/09/10 18:00:29;;;;;;;;;;;;;;;22.81;53.90;100922.98;108526;1272;70969;-88
2023/09/10 18:03:55;;;;;;;;;;;;;;;22.73;54.12;100921.88;108582;1273;59349;-89
2023/09/10 18:07:21;;;;;;;;;;;;;;;22.67;54.21;100923.80;108503;1273;60504;-88
2023/09/10 18:10:47;;;;;;;;;;;;;;;22.59;54.25;100922.89;108156;1277;73233;-88
2023/09/10 18:14:14;;;;;;;;;;;;;;;22.50;54.49;100920.34;108171;1277;68732;-88
2023/09/10 18:17:42;;;;;;;;;;;;;;;22.38;54.65;100925.93;108695;1270;71250;-88
2023/09/10 18:20:52;;;;;;;;;;;;;;;22.31;54.68;100930.10;108648;1272;60088;-88
2023/09/10 18:24:18;;;;;;;;;;;;;;;22.17;54.90;100930.95;108711;1270;58968;-88
2023/09/10 18:27:44;;;;;;;;;;;;;;;22.08;54.99;100934.09;108698;1270;74804;-88
2023/09/10 18:31:11;;;;;;;;;;;;;;;21.97;55.12;100941.91;108686;1270;67516;-89
2023/09/10 18:34:37;;;;;;;;;;;;;;;21.86;55.41;100938.33;108673;1270;71814;-88
2023/09/10 18:38:03;;;;;;;;;;;;;;;21.83;55.48;100939.08;108731;1268;58408;-88
2023/09/10 18:41:29;;;;;;;;;;;;;;;21.77;55.53;100942.91;108779;1268;58874;-88
2023/09/10 18:44:56;;;;;;;;;;;;;;;21.67;55.57;100944.01;108797;1268;75038;-89
2023/09/10 18:48:22;;;;;;;;;;;;;;;21.55;55.77;100945.95;109018;1264;67196;-89
2023/09/10 18:51:47;;;;;;;;;;;;;;;21.48;55.86;100944.54;109152;1264;72084;-88
2023/09/10 18:55:14;;;;;;;;;;;;;;;21.42;55.89;100943.48;109119;1264;59098;-88
2023/09/10 18:58:39;;;;;;;;;;;;;;;21.35;56.06;100944.40;108848;1268;59581;-88
2023/09/10 19:02:05;;;;;;;;;;;;;;;21.27;56.23;100942.95;108835;1267;74052;-88
2023/09/10 19:05:31;;;;;;;;;;;;;;;21.19;56.32;100942.01;108880;1268;68343;-88
2023/09/10 19:08:58;;;;;;;;;;;;;;;21.11;56.24;100943.09;108814;1268;71942;-88
2023/09/10 19:12:17;;;;;;;;;;;;;;;21.07;56.55;100944.88;108807;1268;61076;-87
2023/09/10 19:15:42;;;;;;;;;;;;;;;21.02;56.54;100946.23;108839;1268;59669;-88
2023/09/10 19:19:27;;;;;;;;;;;;;;;20.89;56.62;100944.30;108807;1268;73680;-87
2023/09/10 19:25:12;;;;;;;;;;;;;;;20.77;56.84;100944.80;109129;1263;71251;-87
2023/09/10 19:28:23;;;;;;;;;;;;;;;20.74;56.89;100942.48;109149;1267;58911;-87
2023/09/10 19:31:58;;;;;;;;;;;;;;;20.68;56.97;100938.40;109029;1263;58866;-87
2023/09/10 19:35:20;;;;;;;;;;;;;;;20.64;57.04;100938.33;108871;1267;74338;-87
2023/09/10 19:38:27;;;;;;;;;;;;;;;20.57;57.19;100940.79;108861;1267;67531;-85
2023/09/10 19:41:13;;;;;;;;;;;;;;;20.50;57.20;100942.17;108837;1268;70382;-85